메인 페이지
METAR-TAF:

METAR-TAF

공항 :

호세 호아킨데 올메도 국제공항

과야킬, 에콰도르

위도: 02-09S, 경도: 079-53W, 고도: 4m

현재 날씨관측

예보는 38분 전, 16:00시(UTC)에 발표되었습니다.
북북동2kt
온도 31°C
습도 66%
기압 1013 hPa
시정 10km 이상
고도 2000ft 상공 구름 보통
고도 10000ft 상공 구름 많음

METAR: SEGU 021600Z 02002KT 9999 SCT020 BKN100 31/24 Q1013 NOSIG RMK A2993

시각: 11:38 (16:38 UTC)

예보

예보는 5 시간 48분 전, 10:50시(UTC)에 발표되었습니다.
예보 대상 시간: 02일 12시부터 03일 12시까지 (UTC)
서남서6kt
시정 10km 이상
고도 2600ft 상공 구름 보통
고도 10000ft 상공 구름 많음
전환 중
02일 16시부터 02일 18시까지 (UTC)
동북동5kt
전환 중
03일 00시부터 03일 02시까지 (UTC)
남서4kt
고도 2600ft 상공 구름 많음
고도 10000ft 상공 구름 많음
전환 중
03일 04시부터 03일 06시까지 (UTC)
고도 1000ft 상공 구름 조금
고도 3000ft 상공 구름 많음

TAF: SEGU 021050Z 0212/0312 24006KT 9999 SCT026 BKN100 BECMG 0216/0218 06005KT BECMG 0300/0302 22004KT BKN026 BKN100 BECMG 0304/0306 FEW010 BKN030 TX32/0220Z TN25/0310Z

4,000개 이상의 공항 관측 자료 및 예보 (METAR 및 TAF 보고).

지도상에서 검색 가능한 기상관측소가 노란 점과 빨간 점으로 표시되어 있습니다.

기상관측소 명을 보려면 표시 위로 마우스를 이동하세요.

날씨 관측과 예보를 보려면 클릭하세요.

지도 변경 : 확대하려면 엑스 표시가 있는 녹색 버튼, 축소하려면 빼기 표시가 있는 녹색 버튼, 다음 페이지의 지도를 보려면 녹색 화살표를 클릭하세요.


METAR-TAF: